Time;durP1;ratioP1;P1;durP2;ratioP2;P2;SDS_P1;SDS_P2;PMS_P1;PMS_P2;Temp;Humidity;BMP_temperature;BMP_pressure;BME280_temperature;BME280_humidity;BME280_pressure;Samples;Min_cycle;Max_cycle;Signal;HPM_P1;HPM_P2
2022/06/12 00:01:21;;;;;;;4.38;3.00;;;17.80;97.20;;;;;;4953496;28;20038;-78
2022/06/12 00:03:48;;;;;;;5.22;3.08;;;17.80;97.20;;;;;;4956827;28;20027;-77
2022/06/12 00:06:16;;;;;;;6.22;3.28;;;17.80;97.30;;;;;;4952444;28;20030;-77
2022/06/12 00:08:45;;;;;;;6.03;2.92;;;17.80;97.20;;;;;;4954466;28;20114;-78
2022/06/12 00:11:13;;;;;;;4.00;2.58;;;17.70;97.10;;;;;;4954255;28;20027;-78
2022/06/12 00:13:44;;;;;;;4.75;2.78;;;17.70;97.20;;;;;;4953781;28;20031;-77
2022/06/12 00:16:11;;;;;;;5.57;3.47;;;17.70;97.30;;;;;;4948411;28;20019;-78
2022/06/12 00:18:38;;;;;;;5.40;3.38;;;17.70;97.40;;;;;;4952970;28;20036;-77
2022/06/12 00:21:11;;;;;;;7.68;3.75;;;17.70;97.50;;;;;;4947736;28;20059;-78
2022/06/12 00:23:56;;;;;;;6.47;3.63;;;17.70;97.60;;;;;;4951774;28;20032;-77
2022/06/12 00:26:29;;;;;;;4.88;3.15;;;17.60;97.70;;;;;;4949522;28;20035;-78
2022/06/12 00:29:01;;;;;;;5.32;3.17;;;17.60;97.90;;;;;;4956089;28;20046;-78
2022/06/12 00:31:28;;;;;;;6.28;3.47;;;17.50;98.00;;;;;;4955373;28;20039;-78
2022/06/12 00:33:57;;;;;;;6.15;2.85;;;17.60;98.00;;;;;;4956101;28;20551;-76
2022/06/12 00:36:35;;;;;;;4.43;2.92;;;17.50;98.10;;;;;;4956923;28;20041;-77
2022/06/12 00:39:04;;;;;;;5.00;2.83;;;17.50;98.00;;;;;;4946400;28;20040;-78
2022/06/12 00:41:33;;;;;;;5.72;3.00;;;17.50;98.10;;;;;;4951312;28;20031;-78
2022/06/12 00:44:03;;;;;;;5.82;2.80;;;17.50;98.00;;;;;;4950698;28;20027;-77
2022/06/12 00:46:50;;;;;;;3.75;2.78;;;17.50;98.10;;;;;;4969955;28;21097;-77
2022/06/12 00:49:33;;;;;;;3.45;2.80;;;17.50;98.20;;;;;;4949475;28;20027;-77
2022/06/12 00:52:11;;;;;;;3.35;2.55;;;17.50;98.30;;;;;;4947638;28;20027;-78
2022/06/12 00:54:39;;;;;;;4.43;2.97;;;17.40;98.40;;;;;;4953679;28;20044;-78
2022/06/12 00:57:06;;;;;;;5.22;3.05;;;17.40;98.60;;;;;;4961115;28;20031;-78
2022/06/12 00:59:42;;;;;;;3.72;2.65;;;17.40;98.70;;;;;;4962015;28;20043;-77
2022/06/12 01:02:11;;;;;;;6.35;2.80;;;17.30;98.70;;;;;;4958344;28;20071;-78
2022/06/12 01:07:26;;;;;;;6.65;3.20;;;17.30;98.70;;;;;;4953644;28;20397;-78
2022/06/12 01:09:55;;;;;;;6.75;3.15;;;17.40;99.00;;;;;;4954091;28;20066;-77
2022/06/12 01:12:35;;;;;;;3.83;3.08;;;17.30;98.70;;;;;;4942862;28;20042;-76
2022/06/12 01:15:15;;;;;;;7.50;2.58;;;17.30;98.70;;;;;;4948204;28;20528;-75
2022/06/12 01:17:41;;;;;;;5.47;2.78;;;17.30;98.90;;;;;;4945737;28;20037;-76
2022/06/12 01:20:15;;;;;;;8.43;2.70;;;17.20;99.00;;;;;;4950474;28;20031;-77
2022/06/12 01:23:09;;;;;;;5.50;3.45;;;17.20;99.00;;;;;;4944706;28;20102;-77
2022/06/12 01:25:46;;;;;;;3.10;2.58;;;17.20;99.10;;;;;;4948357;28;20024;-77
2022/06/12 01:28:37;;;;;;;5.22;3.45;;;17.20;99.30;;;;;;4945713;28;20144;-77
2022/06/12 01:31:30;;;;;;;5.93;3.08;;;17.10;99.40;;;;;;4951852;28;20154;-77
2022/06/12 01:34:32;;;;;;;6.77;3.33;;;17.10;99.50;;;;;;4948384;28;20027;-77
2022/06/12 01:37:16;;;;;;;5.18;2.80;;;17.10;99.60;;;;;;4950914;28;20285;-77
2022/06/12 01:39:50;;;;;;;4.25;2.80;;;17.00;99.70;;;;;;4951625;28;20047;-77
2022/06/12 01:42:38;;;;;;;4.80;3.13;;;17.00;99.90;;;;;;4950042;28;20035;-77
2022/06/12 01:45:11;;;;;;;3.42;3.13;;;16.90;99.90;;;;;;4949533;28;20038;-77
2022/06/12 01:47:51;;;;;;;3.78;3.10;;;16.90;99.90;;;;;;4953386;28;20523;-77
2022/06/12 01:50:34;;;;;;;6.47;2.85;;;16.90;99.90;;;;;;4949453;28;20034;-77
2022/06/12 01:53:24;;;;;;;5.72;3.53;;;16.80;99.90;;;;;;4948176;28;20043;-77
2022/06/12 01:55:56;;;;;;;6.15;3.42;;;16.80;99.90;;;;;;4949766;28;20031;-77
2022/06/12 01:58:32;;;;;;;9.65;5.30;;;16.70;99.90;;;;;;4952173;28;20093;-77
2022/06/12 02:01:31;;;;;;;7.85;5.30;;;16.70;99.90;;;;;;4950081;28;20519;-77
2022/06/12 02:04:12;;;;;;;7.43;5.20;;;16.60;99.90;;;;;;4951944;28;20027;-78
2022/06/12 02:06:42;;;;;;;5.28;4.78;;;16.60;99.90;;;;;;4951733;28;20035;-78
2022/06/12 02:09:14;;;;;;;5.95;4.07;;;16.60;99.90;;;;;;4947217;28;20023;-77
2022/06/12 02:14:38;;;;;;;3.22;2.70;;;16.60;99.90;;;;;;4956421;28;20114;-75
2022/06/12 02:17:08;;;;;;;4.65;3.22;;;16.50;99.90;;;;;;4951913;28;20039;-77
2022/06/12 02:19:38;;;;;;;5.25;3.38;;;16.40;99.90;;;;;;4946746;28;20079;-77
2022/06/12 02:22:10;;;;;;;4.20;3.38;;;16.40;99.90;;;;;;4949390;28;20453;-77
2022/06/12 02:24:44;;;;;;;4.50;3.53;;;16.40;99.90;;;;;;4952607;28;20035;-77
2022/06/12 02:27:16;;;;;;;5.78;3.40;;;16.30;99.90;;;;;;4963291;28;20417;-77
2022/06/12 02:29:46;;;;;;;3.88;3.00;;;16.30;99.90;;;;;;4952791;28;20027;-77
2022/06/12 02:32:19;;;;;;;5.85;3.60;;;16.20;99.90;;;;;;4950632;28;20031;-77
2022/06/12 02:34:53;;;;;;;4.82;3.20;;;16.20;99.90;;;;;;4972068;28;20019;-76
2022/06/12 02:37:25;;;;;;;5.60;3.45;;;16.20;99.90;;;;;;4945360;28;20055;-76
2022/06/12 02:39:57;;;;;;;5.50;3.58;;;16.20;99.90;;;;;;4950324;28;20043;-76
2022/06/12 02:42:38;;;;;;;7.50;3.75;;;16.10;99.90;;;;;;4954484;28;20431;-78
2022/06/12 02:45:15;;;;;;;4.55;3.00;;;16.10;99.90;;;;;;4957425;28;20103;-77
2022/06/12 02:47:43;;;;;;;5.97;3.45;;;16.10;99.90;;;;;;4960143;28;20089;-77
2022/06/12 02:50:12;;;;;;;4.93;2.83;;;16.10;99.90;;;;;;4964350;28;20468;-77
2022/06/12 02:53:02;;;;;;;3.78;2.67;;;16.10;99.90;;;;;;4954525;28;20074;-79
2022/06/12 02:55:48;;;;;;;3.72;2.90;;;16.10;99.90;;;;;;4953763;28;20027;-77
2022/06/12 02:58:46;;;;;;;4.78;2.90;;;16.10;99.90;;;;;;4952863;28;20503;-78
2022/06/12 03:01:35;;;;;;;4.72;2.70;;;16.10;99.90;;;;;;4951943;28;20085;-78
2022/06/12 03:04:06;;;;;;;4.25;2.47;;;16.10;99.90;;;;;;4955091;28;20042;-78
2022/06/12 03:06:34;;;;;;;4.85;3.08;;;16.10;99.90;;;;;;4957740;28;20512;-77
2022/06/12 03:09:02;;;;;;;5.93;3.08;;;16.10;99.90;;;;;;4957642;28;20433;-78
2022/06/12 03:11:48;;;;;;;5.15;3.17;;;16.00;99.90;;;;;;4955137;28;20034;-77
2022/06/12 03:14:21;;;;;;;4.65;3.40;;;15.90;99.90;;;;;;4956303;28;20019;-78
2022/06/12 03:16:48;;;;;;;4.40;2.72;;;15.90;99.90;;;;;;4954753;28;20165;-79
2022/06/12 03:19:23;;;;;;;3.63;2.88;;;15.90;99.90;;;;;;4959566;28;20047;-78
2022/06/12 03:22:23;;;;;;;5.90;3.08;;;15.90;99.90;;;;;;4956576;28;20492;-78
2022/06/12 03:25:26;;;;;;;3.60;2.55;;;15.90;99.90;;;;;;4957380;28;20106;-78
2022/06/12 03:28:07;;;;;;;3.75;2.67;;;15.90;99.90;;;;;;4953403;28;20027;-78
2022/06/12 03:30:49;;;;;;;4.35;2.75;;;15.90;99.90;;;;;;4945514;28;20626;-77
2022/06/12 03:33:42;;;;;;;2.95;2.58;;;15.90;99.90;;;;;;4952476;28;20572;-77
2022/06/12 03:36:31;;;;;;;3.28;2.42;;;15.90;99.90;;;;;;4958237;28;20166;-76
2022/06/12 03:39:06;;;;;;;5.45;2.70;;;15.90;99.90;;;;;;4953386;28;20619;-76
2022/06/12 03:41:54;;;;;;;5.15;2.72;;;16.00;99.90;;;;;;4951322;28;20020;-78
2022/06/12 03:44:27;;;;;;;5.18;2.83;;;15.90;99.90;;;;;;4953538;28;20034;-76
2022/06/12 03:47:05;;;;;;;4.00;2.50;;;16.00;99.90;;;;;;4960159;28;20024;-76
2022/06/12 03:49:40;;;;;;;3.58;2.70;;;16.00;99.90;;;;;;4952265;28;20027;-76
2022/06/12 03:52:30;;;;;;;4.45;2.72;;;16.00;99.90;;;;;;4942934;28;20074;-77
2022/06/12 03:55:20;;;;;;;4.70;2.92;;;16.00;99.90;;;;;;4952304;28;20055;-77
2022/06/12 03:57:53;;;;;;;3.58;2.75;;;16.00;99.90;;;;;;4962140;28;20085;-77
2022/06/12 04:00:36;;;;;;;4.82;2.78;;;15.90;99.90;;;;;;4950285;28;20365;-78
2022/06/12 04:03:13;;;;;;;5.65;2.90;;;16.00;99.90;;;;;;4955495;28;20488;-78
2022/06/12 04:05:47;;;;;;;4.97;2.83;;;16.00;99.90;;;;;;4952025;28;20035;-77
2022/06/12 04:08:17;;;;;;;;;;;16.00;99.90;;;;;;4957348;28;20030;-78
2022/06/12 04:10:44;;;;;;;4.43;2.50;;;16.00;99.90;;;;;;4958976;28;20005;-78
2022/06/12 04:13:13;;;;;;;3.53;2.63;;;16.00;99.90;;;;;;4951984;28;20027;-78
2022/06/12 04:15:56;;;;;;;3.20;2.42;;;16.00;99.90;;;;;;4970785;28;20086;-79
2022/06/12 04:18:23;;;;;;;6.13;3.05;;;16.10;99.90;;;;;;4953262;28;20034;-79
2022/06/12 04:20:57;;;;;;;4.50;2.80;;;16.20;99.90;;;;;;4955577;28;20534;-79
2022/06/12 04:23:49;;;;;;;3.67;2.50;;;16.30;99.90;;;;;;4955268;28;20024;-79
2022/06/12 04:26:37;;;;;;;4.13;2.80;;;16.40;99.90;;;;;;4962739;28;20146;-78
2022/06/12 04:29:19;;;;;;;4.75;2.60;;;16.70;99.90;;;;;;4954704;28;20023;-78
2022/06/12 04:31:48;;;;;;;3.47;2.88;;;17.00;99.90;;;;;;4954930;28;20031;-76
2022/06/12 04:34:25;;;;;;;5.00;2.75;;;17.60;99.90;;;;;;4970593;28;20110;-78
2022/06/12 04:37:12;;;;;;;3.88;2.53;;;18.00;99.90;;;;;;4947800;28;20027;-77
2022/06/12 04:39:38;;;;;;;2.88;2.35;;;18.10;99.90;;;;;;4945921;28;20027;-77
2022/06/12 04:42:20;;;;;;;3.25;2.40;;;18.10;99.70;;;;;;4946549;28;20023;-77
2022/06/12 04:44:46;;;;;;;3.65;2.70;;;18.20;99.40;;;;;;4946651;28;20082;-77
2022/06/12 04:47:15;;;;;;;4.88;2.20;;;18.20;99.40;;;;;;4950063;28;20038;-77
2022/06/12 04:49:41;;;;;;;4.38;2.45;;;18.30;99.30;;;;;;4947601;28;20038;-77
2022/06/12 04:52:14;;;;;;;5.43;2.38;;;18.30;99.10;;;;;;4944803;28;20207;-77
2022/06/12 04:54:41;;;;;;;4.88;3.90;;;18.40;98.90;;;;;;4951880;28;20082;-77
2022/06/12 04:57:08;;;;;;;5.68;4.25;;;18.40;99.30;;;;;;4944257;28;20038;-79
2022/06/12 04:59:37;;;;;;;4.88;4.07;;;18.60;99.80;;;;;;4950386;28;20024;-78
2022/06/12 05:02:03;;;;;;;6.28;4.55;;;18.60;99.90;;;;;;4960735;28;20081;-77
2022/06/12 05:04:35;;;;;;;6.82;3.63;;;18.70;99.90;;;;;;4952905;28;20027;-75
2022/06/12 05:07:01;;;;;;;5.85;3.75;;;18.80;99.90;;;;;;4952143;28;20488;-77
2022/06/12 05:09:33;;;;;;;6.43;3.83;;;18.80;99.90;;;;;;4948647;28;20111;-77
2022/06/12 05:11:59;;;;;;;7.32;4.20;;;18.90;99.90;;;;;;4955548;28;20446;-77
2022/06/12 05:14:25;;;;;;;9.50;4.43;;;19.00;99.70;;;;;;4956476;28;20241;-77
2022/06/12 05:16:58;;;;;;;5.35;4.32;;;19.10;99.50;;;;;;4949600;28;20114;-77
2022/06/12 05:19:28;;;;;;;7.97;3.90;;;19.20;99.40;;;;;;4946874;28;20039;-77
2022/06/12 05:22:00;;;;;;;5.88;4.15;;;19.30;99.30;;;;;;4948329;28;20012;-77
2022/06/12 05:24:26;;;;;;;8.15;4.18;;;19.40;99.00;;;;;;4950041;28;20037;-77
2022/06/12 05:26:53;;;;;;;5.25;3.38;;;19.40;98.70;;;;;;4952043;28;20043;-76
2022/06/12 05:29:25;;;;;;;4.03;3.55;;;19.50;98.40;;;;;;4965049;28;20366;-77
2022/06/12 05:32:01;;;;;;;4.57;4.03;;;19.50;98.30;;;;;;4954220;28;20082;-77
2022/06/12 05:34:31;;;;;;;6.50;4.07;;;19.60;98.20;;;;;;4954529;28;20392;-76
2022/06/12 05:36:57;;;;;;;4.28;3.65;;;19.60;98.30;;;;;;4953469;28;20029;-77
2022/06/12 05:39:23;;;;;;;5.88;4.00;;;19.70;98.20;;;;;;4946427;28;20027;-77
2022/06/12 05:41:53;;;;;;;4.07;3.67;;;19.70;98.10;;;;;;4967408;28;20027;-77
2022/06/12 05:44:21;;;;;;;4.70;3.72;;;19.80;98.10;;;;;;4953327;28;20030;-78
2022/06/12 05:46:47;;;;;;;5.03;3.25;;;19.90;97.70;;;;;;4966167;28;20053;-77
2022/06/12 05:49:13;;;;;;;6.78;3.38;;;19.90;97.40;;;;;;4948590;28;20736;-77
2022/06/12 05:51:39;;;;;;;4.30;3.25;;;19.90;97.50;;;;;;4949691;28;20075;-77
2022/06/12 05:54:08;;;;;;;5.28;3.22;;;20.00;97.40;;;;;;4950608;28;20512;-77
2022/06/12 05:56:34;;;;;;;4.43;3.10;;;20.10;97.30;;;;;;4953441;28;20054;-77
2022/06/12 05:59:00;;;;;;;3.42;3.00;;;20.20;97.30;;;;;;4949160;28;20031;-77
2022/06/12 06:01:27;;;;;;;4.45;2.95;;;20.40;97.10;;;;;;4948671;28;20028;-75
2022/06/12 06:03:53;;;;;;;4.93;2.72;;;20.50;96.80;;;;;;4943359;28;20046;-77
2022/06/12 06:06:29;;;;;;;4.05;2.83;;;20.60;96.70;;;;;;4947997;28;20141;-77
2022/06/12 06:08:55;;;;;;;5.75;2.90;;;20.70;96.30;;;;;;4951843;28;20023;-76
2022/06/12 06:11:21;;;;;;;4.82;2.58;;;20.80;96.10;;;;;;4951447;28;20393;-75
2022/06/12 06:13:50;;;;;;;4.20;3.10;;;20.90;95.90;;;;;;4939413;28;20027;-76
2022/06/12 06:16:16;;;;;;;3.10;2.55;;;21.00;95.80;;;;;;4949146;28;20420;-77
2022/06/12 06:18:45;;;;;;;2.90;2.50;;;21.10;95.70;;;;;;4950686;28;20028;-77
2022/06/12 06:21:12;;;;;;;3.13;2.63;;;21.20;95.50;;;;;;4941654;28;20032;-77
2022/06/12 06:23:41;;;;;;;7.05;3.20;;;21.30;95.30;;;;;;4952265;28;20031;-77
2022/06/12 06:26:08;;;;;;;4.97;2.42;;;21.30;94.90;;;;;;4945592;28;20031;-76
2022/06/12 06:28:35;;;;;;;3.22;2.67;;;21.40;94.90;;;;;;4947740;28;20070;-78
2022/06/12 06:31:01;;;;;;;4.20;2.88;;;21.60;94.70;;;;;;4945011;28;20459;-76
2022/06/12 06:33:26;;;;;;;4.32;2.60;;;21.70;94.70;;;;;;4945051;28;20035;-78
2022/06/12 06:35:52;;;;;;;4.45;2.85;;;21.80;94.30;;;;;;4943749;28;20714;-80
2022/06/12 06:38:19;;;;;;;6.80;2.70;;;21.80;94.00;;;;;;4945860;28;20366;-78
2022/06/12 06:40:45;;;;;;;3.33;2.63;;;21.80;94.00;;;;;;4939130;28;20059;-78
2022/06/12 06:43:10;;;;;;;5.70;3.00;;;21.80;94.00;;;;;;4941677;28;20030;-79
2022/06/12 06:48:23;;;;;;;5.10;3.08;;;21.80;93.70;;;;;;4949334;28;20094;-77
2022/06/12 06:50:48;;;;;;;6.28;3.55;;;21.80;93.70;;;;;;4952706;28;20086;-80
2022/06/12 06:53:14;;;;;;;6.45;2.90;;;21.90;93.70;;;;;;4945180;28;20488;-80
2022/06/12 06:55:42;;;;;;;5.40;3.60;;;22.00;93.80;;;;;;4949614;28;20031;-77
2022/06/12 06:58:12;;;;;;;3.85;3.10;;;22.10;93.50;;;;;;4948952;28;20031;-77
2022/06/12 07:00:41;;;;;;;5.13;3.08;;;22.10;93.50;;;;;;4953054;28;20065;-77
2022/06/12 07:03:07;;;;;;;4.40;3.22;;;22.10;93.50;;;;;;4954653;28;20023;-75
2022/06/12 07:05:34;;;;;;;3.45;3.03;;;22.20;93.40;;;;;;4947854;28;20477;-78
2022/06/12 07:08:00;;;;;;;5.53;3.47;;;22.10;93.30;;;;;;4950368;28;20095;-78
2022/06/12 07:10:29;;;;;;;8.13;3.20;;;22.10;93.40;;;;;;4951898;28;20035;-79
2022/06/12 07:12:58;;;;;;;3.70;3.10;;;22.10;93.40;;;;;;4949439;28;20027;-78
2022/06/12 07:15:25;;;;;;;3.97;3.08;;;22.10;93.40;;;;;;4949603;28;20115;-78
2022/06/12 07:17:51;;;;;;;4.03;2.80;;;22.10;93.40;;;;;;4951362;28;20051;-77
2022/06/12 07:20:19;;;;;;;5.68;3.03;;;22.10;93.20;;;;;;4945954;28;20022;-78
2022/06/12 07:22:45;;;;;;;3.53;2.30;;;22.10;92.90;;;;;;4952455;28;20055;-77
2022/06/12 07:25:13;;;;;;;3.90;2.63;;;22.20;92.40;;;;;;4943365;28;20070;-77
2022/06/12 07:27:39;;;;;;;4.07;2.45;;;22.20;92.20;;;;;;4953214;28;20106;-78
2022/06/12 07:30:08;;;;;;;3.63;2.80;;;22.20;92.20;;;;;;4950690;28;20445;-75
2022/06/12 07:32:34;;;;;;;3.10;2.67;;;22.20;92.10;;;;;;4949179;28;20138;-77
2022/06/12 07:35:01;;;;;;;5.10;2.72;;;22.30;92.00;;;;;;4952170;28;20040;-79
2022/06/12 07:37:26;;;;;;;5.93;2.70;;;22.30;92.00;;;;;;4950710;28;20066;-78
2022/06/12 07:39:52;;;;;;;3.97;2.65;;;22.40;91.90;;;;;;4950040;28;20495;-78
2022/06/12 07:42:18;;;;;;;3.50;2.55;;;22.50;91.30;;;;;;4952041;28;20484;-78
2022/06/12 07:44:44;;;;;;;4.20;2.22;;;22.50;91.20;;;;;;4950425;28;20063;-78
2022/06/12 07:47:10;;;;;;;3.00;2.35;;;22.50;90.60;;;;;;4953663;28;20051;-77
2022/06/12 07:49:35;;;;;;;2.75;2.40;;;22.50;90.50;;;;;;4950428;28;20041;-78
2022/06/12 07:52:05;;;;;;;3.42;2.33;;;22.50;90.30;;;;;;4949646;28;20035;-77
2022/06/12 07:54:32;;;;;;;3.97;2.75;;;22.60;90.40;;;;;;4959872;28;20031;-77
2022/06/12 07:56:59;;;;;;;4.97;2.25;;;22.70;90.40;;;;;;4950986;28;20067;-76
2022/06/12 07:59:25;;;;;;;4.95;2.50;;;22.80;90.10;;;;;;4952339;28;20838;-76
2022/06/12 08:01:52;;;;;;;3.58;2.63;;;22.80;89.70;;;;;;4952086;28;20405;-74
2022/06/12 08:04:19;;;;;;;3.42;2.72;;;22.90;89.60;;;;;;4955257;28;20378;-78
2022/06/12 08:06:45;;;;;;;2.95;2.17;;;22.90;89.10;;;;;;4954621;28;20452;-73
2022/06/12 08:09:11;;;;;;;3.03;2.63;;;23.00;88.90;;;;;;4947754;28;20050;-75
2022/06/12 08:11:40;;;;;;;3.47;2.22;;;23.00;88.80;;;;;;4947505;28;20031;-77
2022/06/12 08:14:06;;;;;;;2.80;1.90;;;23.00;88.60;;;;;;4947455;28;20165;-77
2022/06/12 08:16:33;;;;;;;3.05;2.38;;;23.00;88.40;;;;;;4950763;28;20030;-77
2022/06/12 08:18:59;;;;;;;3.05;2.00;;;23.10;88.10;;;;;;4948251;28;20576;-77
2022/06/12 08:21:26;;;;;;;5.00;2.03;;;23.20;88.10;;;;;;4941809;28;20500;-76
2022/06/12 08:23:57;;;;;;;4.55;2.40;;;23.30;86.60;;;;;;4941667;28;20488;-76
2022/06/12 08:26:30;;;;;;;4.32;3.20;;;23.30;85.00;;;;;;4944929;28;20035;-75
2022/06/12 08:29:03;;;;;;;2.78;2.10;;;23.40;84.80;;;;;;4948147;28;20488;-76
2022/06/12 08:31:37;;;;;;;6.15;2.25;;;23.40;85.50;;;;;;4948166;28;20019;-76
2022/06/12 08:34:08;;;;;;;4.82;2.30;;;23.50;85.70;;;;;;4948014;28;20463;-75
2022/06/12 08:36:35;;;;;;;4.20;2.33;;;23.60;85.80;;;;;;4950658;28;20034;-76
2022/06/12 08:39:01;;;;;;;4.47;2.78;;;23.70;85.30;;;;;;4947596;28;20118;-76
2022/06/12 08:41:36;;;;;;;2.38;2.17;;;23.80;85.00;;;;;;4948586;28;20031;-77
2022/06/12 08:44:21;;;;;;;3.25;2.00;;;23.90;83.70;;;;;;4943964;28;20043;-76
2022/06/12 08:47:11;;;;;;;4.22;2.30;;;24.00;82.50;;;;;;4953216;28;20122;-76
2022/06/12 08:49:54;;;;;;;2.30;2.10;;;24.10;81.90;;;;;;4964687;28;20034;-74
2022/06/12 08:53:02;;;;;;;2.75;2.20;;;24.10;81.90;;;;;;4946751;28;20034;-75
2022/06/12 08:55:40;;;;;;;2.47;2.08;;;24.10;81.90;;;;;;4941023;28;20147;-73
2022/06/12 08:58:17;;;;;;;3.78;2.05;;;24.20;81.30;;;;;;4946331;28;20031;-75
2022/06/12 09:00:43;;;;;;;3.05;1.92;;;24.30;79.90;;;;;;4941859;28;20031;-76
2022/06/12 09:03:15;;;;;;;7.30;2.80;;;24.30;80.20;;;;;;4945229;28;20477;-77
2022/06/12 09:05:53;;;;;;;3.97;2.22;;;24.40;81.30;;;;;;4963412;28;20023;-76
2022/06/12 09:08:35;;;;;;;5.97;2.38;;;24.50;81.20;;;;;;4943684;28;20019;-76
2022/06/12 09:11:12;;;;;;;4.47;2.25;;;24.50;81.30;;;;;;4945539;28;20551;-76
2022/06/12 09:13:56;;;;;;;3.08;2.40;;;24.60;80.40;;;;;;4945050;28;20033;-76
2022/06/12 09:17:09;;;;;;;5.88;2.30;;;24.60;81.10;;;;;;4951469;28;20142;-76
2022/06/12 09:20:02;;;;;;;3.78;2.10;;;24.70;80.80;;;;;;4935872;28;20516;-76
2022/06/12 09:22:43;;;;;;;2.20;1.92;;;24.70;79.70;;;;;;4949675;28;20655;-77
2022/06/12 09:25:33;;;;;;;2.05;1.88;;;24.80;78.70;;;;;;4940776;28;20066;-77
2022/06/12 09:28:08;;;;;;;3.08;2.17;;;25.00;78.70;;;;;;4946601;28;20121;-75
2022/06/12 09:30:58;;;;;;;2.97;2.08;;;25.00;78.30;;;;;;4944136;28;20031;-75
2022/06/12 09:33:47;;;;;;;2.88;2.45;;;25.10;78.30;;;;;;4944011;28;20027;-76
2022/06/12 09:36:29;;;;;;;3.28;1.98;;;25.10;77.80;;;;;;4945371;28;20099;-76
2022/06/12 09:39:06;;;;;;;2.75;2.03;;;25.20;77.00;;;;;;4944171;28;20031;-76
2022/06/12 09:41:57;;;;;;;4.43;2.22;;;25.20;76.50;;;;;;4944569;28;20366;-76
2022/06/12 09:44:50;;;;;;;3.63;2.20;;;25.40;76.10;;;;;;4947197;28;20023;-76
2022/06/12 09:47:27;;;;;;;3.00;2.13;;;25.40;75.70;;;;;;4937587;28;20027;-76
2022/06/12 09:50:16;;;;;;;4.32;2.10;;;25.50;75.70;;;;;;4947346;28;20055;-77
2022/06/12 09:53:04;;;;;;;4.18;2.10;;;25.60;75.40;;;;;;4949543;28;20057;-75
2022/06/12 09:55:37;;;;;;;6.32;2.80;;;25.70;74.70;;;;;;4944428;28;20111;-69
2022/06/12 09:58:17;;;;;;;2.20;1.98;;;25.70;75.10;;;;;;4946276;28;20038;-76
2022/06/12 10:00:53;;;;;;;5.35;2.30;;;25.70;75.70;;;;;;4944054;28;20039;-76
2022/06/12 10:03:41;;;;;;;2.75;1.73;;;25.80;74.20;;;;;;4943069;28;20118;-77
2022/06/12 10:06:21;;;;;;;3.15;2.13;;;25.90;72.40;;;;;;4946504;28;20028;-74
2022/06/12 10:09:17;;;;;;;2.95;1.85;;;25.90;72.70;;;;;;4949941;28;20023;-78
2022/06/12 10:11:58;;;;;;;2.58;1.80;;;25.90;71.00;;;;;;4939184;28;20047;-75
2022/06/12 10:14:35;;;;;;;4.03;1.60;;;25.90;70.80;;;;;;4946756;28;20030;-77
2022/06/12 10:17:13;;;;;;;4.68;1.60;;;25.90;66.80;;;;;;4942847;28;20412;-76
2022/06/12 10:19:51;;;;;;;3.65;1.98;;;26.10;65.30;;;;;;4963116;28;20070;-76
2022/06/12 10:22:35;;;;;;;2.60;1.67;;;26.10;64.90;;;;;;4945818;28;20027;-77
2022/06/12 10:25:02;;;;;;;3.17;1.90;;;26.20;65.80;;;;;;4946629;28;20134;-77
2022/06/12 10:27:41;;;;;;;2.58;1.70;;;26.20;65.10;;;;;;4946457;28;20408;-75
2022/06/12 10:30:07;;;;;;;4.80;1.83;;;26.20;65.30;;;;;;4941415;28;20418;-77
2022/06/12 10:32:55;;;;;;;2.42;1.50;;;26.20;66.00;;;;;;4946407;28;20374;-76
2022/06/12 10:35:24;;;;;;;2.13;1.70;;;26.30;66.20;;;;;;4943217;28;20031;-76
2022/06/12 10:37:49;;;;;;;2.97;1.42;;;26.30;65.20;;;;;;4945300;28;20263;-74
2022/06/12 10:40:17;;;;;;;5.32;1.90;;;26.30;65.30;;;;;;4943901;28;20385;-77
2022/06/12 10:42:51;;;;;;;1.98;1.38;;;26.30;65.00;;;;;;4946943;28;20027;-76
2022/06/12 10:45:27;;;;;;;2.22;1.80;;;26.30;64.70;;;;;;4945084;28;20032;-78
2022/06/12 10:47:56;;;;;;;3.47;1.92;;;26.20;64.70;;;;;;4948540;28;20114;-76
2022/06/12 10:50:32;;;;;;;2.70;1.73;;;26.10;65.20;;;;;;4942392;28;20038;-77
2022/06/12 10:53:09;;;;;;;3.55;1.52;;;26.10;65.30;;;;;;4949649;28;20062;-76
2022/06/12 10:55:41;;;;;;;5.22;1.48;;;26.20;65.40;;;;;;4944785;28;20035;-75
2022/06/12 10:58:48;;;;;;;4.07;1.67;;;26.30;64.40;;;;;;4948555;28;20106;-75
2022/06/12 11:01:27;;;;;;;1.50;1.30;;;26.30;63.70;;;;;;4947697;28;20042;-76
2022/06/12 11:04:22;;;;;;;2.20;1.55;;;26.40;61.20;;;;;;4953048;28;20070;-76
2022/06/12 11:06:58;;;;;;;2.03;1.30;;;26.50;62.10;;;;;;4963852;28;20027;-77
2022/06/12 11:09:33;;;;;;;2.00;1.15;;;26.60;60.80;;;;;;4950033;28;20035;-77
2022/06/12 11:11:58;;;;;;;4.22;1.30;;;26.60;60.90;;;;;;4943088;28;20529;-77
2022/06/12 11:14:30;;;;;;;2.55;1.65;;;26.70;61.70;;;;;;4944680;28;20030;-77
2022/06/12 11:16:58;;;;;;;4.50;1.90;;;26.70;61.70;;;;;;4943373;28;20035;-76
2022/06/12 11:19:36;;;;;;;2.08;1.30;;;26.70;61.80;;;;;;4955804;28;20035;-77
2022/06/12 11:22:25;;;;;;;3.45;1.77;;;26.90;61.50;;;;;;4951604;28;20093;-76
2022/06/12 11:24:57;;;;;;;2.20;1.40;;;26.80;61.80;;;;;;4945704;28;20435;-77
2022/06/12 11:27:50;;;;;;;2.67;1.70;;;26.90;60.60;;;;;;4953144;28;20039;-76
2022/06/12 11:30:30;;;;;;;2.30;1.67;;;26.90;61.10;;;;;;4948336;28;20027;-77
2022/06/12 11:33:21;;;;;;;4.18;1.98;;;26.90;60.90;;;;;;4955651;28;20027;-76
2022/06/12 11:36:21;;;;;;;5.78;2.25;;;26.90;60.60;;;;;;4947198;28;20061;-77
2022/06/12 11:38:50;;;;;;;4.47;2.00;;;26.90;60.70;;;;;;4951774;28;20035;-77
2022/06/12 11:41:37;;;;;;;1.83;1.55;;;26.90;61.20;;;;;;4958115;28;20019;-77
2022/06/12 11:44:12;;;;;;;1.55;1.45;;;26.90;61.70;;;;;;4953880;28;20031;-77
2022/06/12 11:46:37;;;;;;;3.72;1.55;;;27.00;60.80;;;;;;4950253;28;20023;-78
2022/06/12 11:49:31;;;;;;;2.17;1.50;;;27.10;60.40;;;;;;4955748;28;20015;-77
2022/06/12 11:52:16;;;;;;;1.93;1.50;;;27.20;59.90;;;;;;4948877;28;20330;-76
2022/06/12 11:55:09;;;;;;;1.70;1.50;;;27.20;59.90;;;;;;4957846;28;20073;-77
2022/06/12 11:57:51;;;;;;;2.47;1.42;;;27.20;60.20;;;;;;4958758;28;20031;-78
2022/06/12 12:00:22;;;;;;;3.40;1.50;;;27.20;60.40;;;;;;4946257;28;20035;-78
2022/06/12 12:03:09;;;;;;;4.47;1.70;;;27.30;60.40;;;;;;4952692;28;20031;-77
2022/06/12 12:05:35;;;;;;;4.18;2.05;;;27.40;59.50;;;;;;4953866;28;20050;-76
2022/06/12 12:08:17;;;;;;;2.40;1.45;;;27.50;59.30;;;;;;4954563;28;20051;-77
2022/06/12 12:10:54;;;;;;;3.80;1.40;;;27.60;58.50;;;;;;4947868;28;20496;-73
2022/06/12 12:13:26;;;;;;;1.42;1.27;;;27.60;58.10;;;;;;4949843;28;20113;-74
2022/06/12 12:15:55;;;;;;;3.45;1.60;;;27.70;57.60;;;;;;4949333;28;20027;-75
2022/06/12 12:18:38;;;;;;;2.08;1.40;;;27.70;57.90;;;;;;4945497;28;20034;-75
2022/06/12 12:21:13;;;;;;;3.20;1.40;;;27.70;57.50;;;;;;4947764;28;20032;-73
2022/06/12 12:23:44;;;;;;;1.73;1.52;;;27.60;57.60;;;;;;4941928;28;20078;-76
2022/06/12 12:26:24;;;;;;;2.78;1.65;;;27.50;57.80;;;;;;4953040;28;20333;-76
2022/06/12 12:28:54;;;;;;;4.13;1.50;;;27.50;58.20;;;;;;4945853;28;20034;-78
2022/06/12 12:31:21;;;;;;;4.47;1.75;;;27.60;58.40;;;;;;4953509;28;20028;-79
2022/06/12 12:33:49;;;;;;;2.15;1.40;;;27.60;58.20;;;;;;4953322;28;20023;-78
2022/06/12 12:41:51;;;;;;;2.08;1.40;;;27.90;57.40;;;;;;4952031;28;20055;-77
2022/06/12 12:44:38;;;;;;;2.28;2.00;;;28.00;57.00;;;;;;4952903;28;20029;-78
2022/06/12 12:47:20;;;;;;;2.05;1.60;;;28.20;57.40;;;;;;4951896;28;20176;-78
2022/06/12 12:49:46;;;;;;;2.58;1.63;;;28.20;56.40;;;;;;4952400;28;20265;-78
2022/06/12 12:52:20;;;;;;;1.83;1.67;;;28.30;56.60;;;;;;4952347;28;20030;-78
2022/06/12 12:54:47;;;;;;;3.33;2.10;;;28.30;56.60;;;;;;4950434;28;20670;-78
2022/06/12 12:57:15;;;;;;;2.17;1.73;;;28.30;56.30;;;;;;4960842;28;20026;-79
2022/06/12 12:59:51;;;;;;;3.00;1.73;;;28.30;56.80;;;;;;4947026;28;20058;-77
2022/06/12 13:02:31;;;;;;;2.95;1.73;;;28.30;56.20;;;;;;4955457;28;20020;-78
2022/06/12 13:05:19;;;;;;;2.63;1.83;;;28.20;56.20;;;;;;4956145;28;20034;-78
2022/06/12 13:08:17;;;;;;;3.70;2.50;;;28.10;56.30;;;;;;4953060;28;20026;-78
2022/06/12 13:11:07;;;;;;;4.47;1.75;;;28.10;57.40;;;;;;4949192;28;20027;-78
2022/06/12 13:13:55;;;;;;;2.13;1.70;;;28.10;57.30;;;;;;4955280;28;20493;-79
2022/06/12 13:16:41;;;;;;;2.47;1.83;;;28.20;57.30;;;;;;4953249;28;20440;-78
2022/06/12 13:19:41;;;;;;;3.80;1.63;;;28.30;57.40;;;;;;4952526;28;20584;-78
2022/06/12 13:22:16;;;;;;;3.47;1.90;;;28.40;57.20;;;;;;4960533;28;20071;-77
2022/06/12 13:25:04;;;;;;;3.97;1.77;;;28.60;56.60;;;;;;4947036;28;20024;-77
2022/06/12 13:27:52;;;;;;;2.00;1.63;;;28.70;56.30;;;;;;4941196;28;20085;-77
2022/06/12 13:30:28;;;;;;;2.47;1.40;;;28.70;56.00;;;;;;4954231;28;20053;-77
2022/06/12 13:33:10;;;;;;;4.28;2.17;;;28.70;56.00;;;;;;4957796;28;20134;-78
2022/06/12 13:35:48;;;;;;;4.75;2.28;;;28.70;57.60;;;;;;4956609;28;20805;-77
2022/06/12 13:38:21;;;;;;;8.52;2.33;;;28.50;65.00;;;;;;4935627;28;20027;-76
2022/06/12 13:41:12;;;;;;;;;;;28.30;65.90;;;;;;4943247;28;20031;-75
2022/06/12 13:43:41;;;;;;;4.93;1.85;;;28.20;65.70;;;;;;4944477;28;20043;-76